createdAt,value
2023-05-14T00:01:11.260Z,13.93
2023-05-14T00:03:39.972Z,13.99
2023-05-14T00:06:08.135Z,14.03
2023-05-14T00:08:35.085Z,13.94
2023-05-14T00:11:02.363Z,14.13
2023-05-14T00:13:29.474Z,14.11
2023-05-14T00:15:56.442Z,14.10
2023-05-14T00:18:23.313Z,14.15
2023-05-14T00:20:54.627Z,14.29
2023-05-14T00:23:24.069Z,14.06
2023-05-14T00:25:51.015Z,14.15
2023-05-14T00:28:18.010Z,14.22
2023-05-14T00:30:45.132Z,14.14
2023-05-14T00:33:12.201Z,13.99
2023-05-14T00:35:39.218Z,13.99
2023-05-14T00:38:06.481Z,14.17
2023-05-14T00:40:34.093Z,14.13
2023-05-14T00:43:01.559Z,14.08
2023-05-14T00:45:28.773Z,14.07
2023-05-14T00:47:55.908Z,14.07
2023-05-14T00:50:23.351Z,14.02
2023-05-14T00:52:50.878Z,14.10
2023-05-14T00:55:19.070Z,14.00
2023-05-14T00:57:47.200Z,13.86
2023-05-14T01:00:14.417Z,13.82
2023-05-14T01:02:41.628Z,13.87
2023-05-14T01:05:09.277Z,13.87
2023-05-14T01:08:09.378Z,13.83
2023-05-14T01:10:50.706Z,13.83
2023-05-14T01:13:33.047Z,13.87
2023-05-14T01:16:02.524Z,13.84
2023-05-14T01:18:30.081Z,13.80
2023-05-14T01:20:57.113Z,13.69
2023-05-14T01:23:24.014Z,13.62
2023-05-14T01:25:50.967Z,13.36
2023-05-14T01:28:20.648Z,13.51
2023-05-14T01:31:06.137Z,13.55
2023-05-14T01:33:35.122Z,13.47
2023-05-14T01:36:02.708Z,13.41
2023-05-14T01:38:31.778Z,13.34
2023-05-14T01:41:00.799Z,13.43
2023-05-14T01:43:28.588Z,13.37
2023-05-14T01:45:55.872Z,13.21
2023-05-14T01:48:22.908Z,13.28
2023-05-14T01:50:50.036Z,13.37
2023-05-14T01:53:16.982Z,13.39
2023-05-14T01:55:44.034Z,13.43
2023-05-14T01:58:11.186Z,13.38
2023-05-14T02:00:38.509Z,13.38
2023-05-14T02:03:05.518Z,13.39
2023-05-14T02:05:32.883Z,13.29
2023-05-14T02:07:59.807Z,13.23
2023-05-14T02:10:26.906Z,13.23
2023-05-14T02:12:53.818Z,13.04
2023-05-14T02:15:20.907Z,13.12
2023-05-14T02:17:48.412Z,13.16
2023-05-14T02:20:15.772Z,13.08
2023-05-14T02:22:49.812Z,13.01
2023-05-14T02:25:16.933Z,13.07
2023-05-14T02:27:43.980Z,13.10
2023-05-14T02:30:11.857Z,13.14
2023-05-14T02:32:39.696Z,13.04
2023-05-14T02:35:07.334Z,13.02
2023-05-14T02:37:34.876Z,12.97
2023-05-14T02:40:01.878Z,12.86
2023-05-14T02:42:32.572Z,12.91
2023-05-14T02:44:59.783Z,12.93
2023-05-14T02:47:27.200Z,12.89
2023-05-14T02:49:54.336Z,13.00
2023-05-14T02:52:21.266Z,12.93
2023-05-14T02:54:48.368Z,12.88
2023-05-14T02:57:15.381Z,12.75
2023-05-14T02:59:42.602Z,12.86
2023-05-14T03:02:10.017Z,12.94
2023-05-14T03:04:37.721Z,12.86
2023-05-14T03:07:04.758Z,12.90
2023-05-14T03:09:31.774Z,12.95
2023-05-14T03:11:58.716Z,13.00
2023-05-14T03:14:25.726Z,12.98
2023-05-14T03:16:52.724Z,13.08
2023-05-14T03:19:19.870Z,13.14
2023-05-14T03:21:46.781Z,13.16
2023-05-14T03:24:13.744Z,13.14
2023-05-14T03:26:41.209Z,13.04
2023-05-14T03:29:08.398Z,13.04
2023-05-14T03:31:35.539Z,13.06
2023-05-14T03:34:02.849Z,13.00
2023-05-14T03:36:29.842Z,12.90
2023-05-14T03:38:56.800Z,12.76
2023-05-14T03:41:23.688Z,12.63
2023-05-14T03:43:50.625Z,12.66
2023-05-14T03:46:17.561Z,12.60
2023-05-14T03:48:44.684Z,12.60
2023-05-14T03:51:12.686Z,12.27
2023-05-14T03:53:39.707Z,12.18
2023-05-14T03:56:07.297Z,12.31
2023-05-14T03:58:34.182Z,12.45
2023-05-14T04:01:01.234Z,12.48
2023-05-14T04:03:28.496Z,12.51
2023-05-14T04:05:57.374Z,12.41
2023-05-14T04:08:24.326Z,12.36
2023-05-14T04:10:51.638Z,12.47
2023-05-14T04:13:18.578Z,12.57
2023-05-14T04:15:45.710Z,12.64
2023-05-14T04:18:14.078Z,12.61
2023-05-14T04:20:41.267Z,12.70
2023-05-14T04:23:08.445Z,12.60
2023-05-14T04:25:35.481Z,12.59
2023-05-14T04:28:02.642Z,12.61
2023-05-14T04:30:29.738Z,12.70
2023-05-14T04:32:57.059Z,12.62
2023-05-14T04:35:25.330Z,12.60
2023-05-14T04:37:52.446Z,12.62
2023-05-14T04:40:19.364Z,12.65
2023-05-14T04:42:47.778Z,12.74
2023-05-14T04:45:14.759Z,12.75
2023-05-14T04:47:41.860Z,12.71
2023-05-14T04:50:09.804Z,12.64
2023-05-14T04:52:38.758Z,12.50
2023-05-14T04:55:06.517Z,12.46
2023-05-14T04:57:33.440Z,12.38
2023-05-14T05:00:00.468Z,12.14
2023-05-14T05:02:27.567Z,12.33
2023-05-14T05:04:54.435Z,12.35
2023-05-14T05:07:21.525Z,12.31
2023-05-14T05:09:48.374Z,12.25
2023-05-14T05:12:15.403Z,12.10
2023-05-14T05:14:42.270Z,12.26
2023-05-14T05:17:09.232Z,12.25
2023-05-14T05:19:43.763Z,12.00
2023-05-14T05:22:11.781Z,11.97
2023-05-14T05:24:38.750Z,11.98
2023-05-14T05:27:06.138Z,11.79
2023-05-14T05:29:33.564Z,11.70
2023-05-14T05:32:01.068Z,11.60
2023-05-14T05:34:28.091Z,11.55
2023-05-14T05:36:55.054Z,11.54
2023-05-14T05:39:21.968Z,11.34
2023-05-14T05:41:48.953Z,11.25
2023-05-14T05:44:15.804Z,11.10
2023-05-14T05:46:42.822Z,11.05
2023-05-14T05:49:09.728Z,11.04
2023-05-14T05:51:36.640Z,11.02
2023-05-14T05:54:03.778Z,10.96
2023-05-14T05:56:30.912Z,10.97
2023-05-14T05:58:57.778Z,11.01
2023-05-14T06:01:24.807Z,11.03
2023-05-14T06:03:51.706Z,10.99
2023-05-14T06:06:19.024Z,10.93
2023-05-14T06:08:46.037Z,10.90
2023-05-14T06:11:12.909Z,10.85
2023-05-14T06:13:39.856Z,11.09
2023-05-14T06:16:06.920Z,11.09
2023-05-14T06:18:33.972Z,10.91
2023-05-14T06:21:00.930Z,11.12
2023-05-14T06:23:28.171Z,11.09
2023-05-14T06:25:55.061Z,10.94
2023-05-14T06:28:22.162Z,11.17
2023-05-14T06:30:54.069Z,11.01
2023-05-14T06:33:29.625Z,10.98
2023-05-14T06:36:05.848Z,10.99
2023-05-14T06:38:32.845Z,10.93
2023-05-14T06:40:59.694Z,10.94
2023-05-14T06:43:26.727Z,10.88
2023-05-14T06:45:53.769Z,11.02
2023-05-14T06:48:21.465Z,10.90
2023-05-14T06:50:49.493Z,11.07
2023-05-14T06:53:16.702Z,11.02
2023-05-14T06:55:43.933Z,10.98
2023-05-14T06:58:12.032Z,10.93
2023-05-14T07:00:38.895Z,11.04
2023-05-14T07:03:06.059Z,11.24
2023-05-14T07:05:32.987Z,11.25
2023-05-14T07:07:59.831Z,11.20
2023-05-14T07:10:26.856Z,11.20
2023-05-14T07:12:53.897Z,11.47
2023-05-14T07:15:21.236Z,11.59
2023-05-14T07:17:48.181Z,11.39
2023-05-14T07:20:15.217Z,11.21
2023-05-14T07:22:42.128Z,11.16
2023-05-14T07:25:09.353Z,11.18
2023-05-14T07:27:36.346Z,10.99
2023-05-14T07:30:03.653Z,11.06
2023-05-14T07:32:32.532Z,11.00
2023-05-14T07:34:59.472Z,10.99
2023-05-14T07:37:26.472Z,10.96
2023-05-14T07:39:53.823Z,10.91
2023-05-14T07:42:32.224Z,10.95
2023-05-14T07:45:02.011Z,10.92
2023-05-14T07:47:32.189Z,11.03
2023-05-14T07:49:59.427Z,10.91
2023-05-14T07:52:26.777Z,11.09
2023-05-14T07:54:53.833Z,11.08
2023-05-14T07:57:20.957Z,11.21
2023-05-14T07:59:48.615Z,11.25
2023-05-14T08:02:17.091Z,11.04
2023-05-14T08:04:44.938Z,11.11
2023-05-14T08:07:11.929Z,11.04
2023-05-14T08:09:38.819Z,11.04
2023-05-14T08:12:08.627Z,11.25
2023-05-14T08:14:35.670Z,11.30
2023-05-14T08:17:04.544Z,11.43
2023-05-14T08:19:31.621Z,11.56
2023-05-14T08:21:58.467Z,11.28
2023-05-14T08:24:25.375Z,11.42
2023-05-14T08:26:53.143Z,11.52
2023-05-14T08:29:20.108Z,11.45
2023-05-14T08:31:47.372Z,11.65
2023-05-14T08:34:14.605Z,11.78
2023-05-14T08:36:41.567Z,11.70
2023-05-14T08:39:27.067Z,11.62
2023-05-14T08:41:55.300Z,11.67
2023-05-14T08:44:35.448Z,12.01
2023-05-14T08:47:02.567Z,11.83
2023-05-14T08:49:37.306Z,12.19
2023-05-14T08:52:04.810Z,12.03
2023-05-14T08:54:32.589Z,11.84
2023-05-14T08:56:59.803Z,11.86
2023-05-14T08:59:27.214Z,11.85
2023-05-14T09:01:56.365Z,11.85
2023-05-14T09:04:24.973Z,11.88
2023-05-14T09:06:54.026Z,11.96
2023-05-14T09:09:22.651Z,11.96
2023-05-14T09:11:51.615Z,12.10
2023-05-14T09:14:18.541Z,12.27
2023-05-14T09:16:47.739Z,12.16
2023-05-14T09:19:15.734Z,12.06
2023-05-14T09:21:45.724Z,12.20
2023-05-14T09:24:24.001Z,12.18
2023-05-14T09:26:53.171Z,12.01
2023-05-14T09:29:20.876Z,12.07
2023-05-14T09:31:51.856Z,12.13
2023-05-14T09:34:30.700Z,11.95
2023-05-14T09:37:08.525Z,12.22
2023-05-14T09:39:37.293Z,12.08
2023-05-14T09:42:04.710Z,11.99
2023-05-14T09:44:32.254Z,11.82
2023-05-14T09:46:59.505Z,11.87
2023-05-14T09:49:27.025Z,11.95
2023-05-14T09:51:53.948Z,11.96
2023-05-14T09:54:21.031Z,12.03
2023-05-14T09:56:48.014Z,12.14
2023-05-14T09:59:15.257Z,11.72
2023-05-14T10:01:43.610Z,11.79
2023-05-14T10:04:11.961Z,11.93
2023-05-14T10:06:39.914Z,11.63
2023-05-14T10:09:16.199Z,11.65
2023-05-14T10:11:45.095Z,11.69
2023-05-14T10:14:20.889Z,11.65
2023-05-14T10:16:50.618Z,11.62
2023-05-14T10:19:21.518Z,11.68
2023-05-14T10:21:55.815Z,11.44
2023-05-14T10:24:24.547Z,11.28
2023-05-14T10:26:52.144Z,11.13
2023-05-14T10:29:19.074Z,11.02
2023-05-14T10:31:55.682Z,11.01
2023-05-14T10:34:43.855Z,11.19
2023-05-14T10:37:12.525Z,11.25
2023-05-14T10:39:54.232Z,11.21
2023-05-14T10:42:29.689Z,11.06
2023-05-14T10:44:59.715Z,11.23
2023-05-14T10:47:27.517Z,11.40
2023-05-14T10:49:56.927Z,11.55
2023-05-14T10:52:24.897Z,11.58
2023-05-14T10:55:03.632Z,11.81
2023-05-14T10:57:32.602Z,11.78
2023-05-14T11:00:01.295Z,11.71
2023-05-14T11:02:37.015Z,11.78
2023-05-14T11:05:10.525Z,11.84
2023-05-14T11:07:46.736Z,12.03
2023-05-14T11:10:19.218Z,12.12
2023-05-14T11:12:48.926Z,11.65
2023-05-14T11:15:16.762Z,11.46
2023-05-14T11:17:45.428Z,11.75
2023-05-14T11:20:13.455Z,11.84
2023-05-14T11:22:42.399Z,11.95
2023-05-14T11:25:14.710Z,11.91
2023-05-14T11:27:44.319Z,12.05
2023-05-14T11:30:20.117Z,12.11
2023-05-14T11:32:48.926Z,12.18
2023-05-14T11:35:17.798Z,12.19
2023-05-14T11:37:54.144Z,12.18
2023-05-14T11:40:21.199Z,12.43
2023-05-14T11:42:51.383Z,12.43
2023-05-14T11:45:29.942Z,12.34
2023-05-14T11:47:57.418Z,12.23
2023-05-14T11:50:24.586Z,12.59
2023-05-14T11:52:56.800Z,12.67
2023-05-14T11:55:23.909Z,13.12
2023-05-14T11:57:51.514Z,13.06
2023-05-14T12:00:21.911Z,13.00
2023-05-14T12:02:49.992Z,13.19
2023-05-14T12:05:17.761Z,13.05
2023-05-14T12:07:46.002Z,13.22
2023-05-14T12:10:13.973Z,13.40
2023-05-14T12:12:45.028Z,13.51
2023-05-14T12:15:13.570Z,13.92
2023-05-14T12:17:41.241Z,14.02
2023-05-14T12:20:10.668Z,13.98
2023-05-14T12:22:37.768Z,13.98
2023-05-14T12:25:05.070Z,13.83
2023-05-14T12:27:32.105Z,13.65
2023-05-14T12:32:39.449Z,13.65
2023-05-14T12:35:07.054Z,13.99
2023-05-14T12:37:36.168Z,13.65
2023-05-14T12:40:09.661Z,13.80
2023-05-14T12:42:37.039Z,13.45
2023-05-14T12:45:07.362Z,13.69
2023-05-14T12:47:35.018Z,13.55
2023-05-14T12:50:02.634Z,13.64
2023-05-14T12:52:38.815Z,13.66
2023-05-14T12:55:08.810Z,13.25
2023-05-14T12:57:36.055Z,13.07
2023-05-14T13:00:07.139Z,13.07
2023-05-14T13:02:42.873Z,13.03
2023-05-14T13:05:11.987Z,13.09
2023-05-14T13:07:39.087Z,12.79
2023-05-14T13:10:06.935Z,12.74
2023-05-14T13:12:34.182Z,12.72
2023-05-14T13:15:01.148Z,12.59
2023-05-14T13:17:29.194Z,12.43
2023-05-14T13:19:56.072Z,12.56
2023-05-14T13:22:23.151Z,12.52
2023-05-14T13:24:50.101Z,12.57
2023-05-14T13:27:17.001Z,12.56
2023-05-14T13:29:44.084Z,12.55
2023-05-14T13:32:11.309Z,12.78
2023-05-14T13:34:38.275Z,12.86
2023-05-14T13:37:05.344Z,12.71
2023-05-14T13:39:33.135Z,12.74
2023-05-14T13:42:01.580Z,12.87
2023-05-14T13:44:29.815Z,13.00
2023-05-14T13:46:59.584Z,12.80
2023-05-14T13:49:27.368Z,12.89
2023-05-14T13:51:54.531Z,12.89
2023-05-14T13:54:22.310Z,13.12
2023-05-14T13:56:51.359Z,12.72
2023-05-14T13:59:18.760Z,12.79
2023-05-14T14:01:45.771Z,12.92
2023-05-14T14:04:17.703Z,12.83
2023-05-14T14:06:48.083Z,12.73
2023-05-14T14:09:17.111Z,12.71
2023-05-14T14:11:44.928Z,12.70
2023-05-14T14:14:12.356Z,12.62
2023-05-14T14:16:40.832Z,12.50
2023-05-14T14:19:08.497Z,12.40
2023-05-14T14:21:36.043Z,12.47
2023-05-14T14:24:03.083Z,12.55
2023-05-14T14:26:30.043Z,12.37
2023-05-14T14:28:56.994Z,12.46
2023-05-14T14:31:24.093Z,12.43
2023-05-14T14:33:51.293Z,12.35
2023-05-14T14:36:18.179Z,12.25
2023-05-14T14:38:45.241Z,12.43
2023-05-14T14:41:12.179Z,12.33
2023-05-14T14:43:40.414Z,12.29
2023-05-14T14:46:09.204Z,12.25
2023-05-14T14:48:40.024Z,12.25
2023-05-14T14:51:11.732Z,12.18
2023-05-14T14:53:40.401Z,12.16
2023-05-14T14:56:08.566Z,12.10
2023-05-14T14:58:35.669Z,12.09
2023-05-14T15:01:02.603Z,12.25
2023-05-14T15:03:29.974Z,12.00
2023-05-14T15:05:57.503Z,12.20
2023-05-14T15:08:28.819Z,12.22
2023-05-14T15:10:56.661Z,12.19
2023-05-14T15:13:25.089Z,12.31
2023-05-14T15:15:52.796Z,12.23
2023-05-14T15:18:20.246Z,12.19
2023-05-14T15:20:47.393Z,12.12
2023-05-14T15:23:14.498Z,12.01
2023-05-14T15:25:41.450Z,11.97
2023-05-14T15:28:08.403Z,11.93
2023-05-14T15:30:35.585Z,12.01
2023-05-14T15:33:02.960Z,12.00
2023-05-14T15:35:30.360Z,12.09
2023-05-14T15:37:57.478Z,11.95
2023-05-14T15:40:24.803Z,12.17
2023-05-14T15:42:52.116Z,11.89
2023-05-14T15:45:19.228Z,12.12
2023-05-14T15:47:46.303Z,12.03
2023-05-14T15:50:13.269Z,12.20
2023-05-14T15:52:41.599Z,12.15
2023-05-14T15:55:08.992Z,11.94
2023-05-14T15:57:36.115Z,12.01
2023-05-14T16:00:12.889Z,11.86
2023-05-14T16:02:40.118Z,11.73
2023-05-14T16:05:08.612Z,11.83
2023-05-14T16:07:36.486Z,11.82
2023-05-14T16:10:03.746Z,11.67
2023-05-14T16:12:32.645Z,11.90
2023-05-14T16:15:00.051Z,11.55
2023-05-14T16:17:28.459Z,11.66
2023-05-14T16:19:56.484Z,11.84
2023-05-14T16:22:23.708Z,11.79
2023-05-14T16:24:51.074Z,11.84
2023-05-14T16:27:19.214Z,11.75
2023-05-14T16:29:46.227Z,11.91
2023-05-14T16:32:13.436Z,11.65
2023-05-14T16:34:40.739Z,11.76
2023-05-14T16:37:08.174Z,11.66
2023-05-14T16:39:35.054Z,11.54
2023-05-14T16:42:02.118Z,11.60
2023-05-14T16:44:28.968Z,11.71
2023-05-14T16:46:56.363Z,11.77
2023-05-14T16:49:23.298Z,11.44
2023-05-14T16:51:50.395Z,11.49
2023-05-14T16:54:17.288Z,11.60
2023-05-14T16:56:48.180Z,11.78
2023-05-14T16:59:16.301Z,11.61
2023-05-14T17:01:44.333Z,11.64
2023-05-14T17:04:11.445Z,11.48
2023-05-14T17:06:38.367Z,11.53
2023-05-14T17:09:05.554Z,11.61
2023-05-14T17:11:32.601Z,11.73
2023-05-14T17:13:59.559Z,11.73
2023-05-14T17:16:27.197Z,11.63
2023-05-14T17:18:54.229Z,11.62
2023-05-14T17:21:21.237Z,11.51
2023-05-14T17:23:48.232Z,11.57
2023-05-14T17:26:15.329Z,11.66
2023-05-14T17:28:42.515Z,11.52
2023-05-14T17:31:09.459Z,11.37
2023-05-14T17:33:36.488Z,11.45
2023-05-14T17:36:03.665Z,11.54
2023-05-14T17:38:31.014Z,11.61
2023-05-14T17:40:57.949Z,11.71
2023-05-14T17:43:24.882Z,11.51
2023-05-14T17:45:54.517Z,11.52
2023-05-14T17:48:23.109Z,11.44
2023-05-14T17:50:51.800Z,11.66
2023-05-14T17:53:18.865Z,11.51
2023-05-14T17:55:45.914Z,11.61
2023-05-14T17:58:15.492Z,11.66
2023-05-14T18:00:43.745Z,11.48
2023-05-14T18:03:11.476Z,11.50
2023-05-14T18:05:38.790Z,11.52
2023-05-14T18:08:05.810Z,11.52
2023-05-14T18:10:32.909Z,11.53
2023-05-14T18:12:59.858Z,11.36
2023-05-14T18:15:27.396Z,11.46
2023-05-14T18:17:54.716Z,11.52
2023-05-14T18:20:21.893Z,11.50
2023-05-14T18:22:50.624Z,11.39
2023-05-14T18:25:17.933Z,11.25
2023-05-14T18:27:45.534Z,11.49
2023-05-14T18:30:14.748Z,11.35
2023-05-14T18:32:44.150Z,11.57
2023-05-14T18:35:13.066Z,11.38
2023-05-14T18:37:40.947Z,11.22
2023-05-14T18:40:09.414Z,11.23
2023-05-14T18:42:36.359Z,11.23
2023-05-14T18:45:04.283Z,11.39
2023-05-14T18:47:34.608Z,11.30
2023-05-14T18:50:02.188Z,11.43
2023-05-14T18:52:32.405Z,11.23
2023-05-14T18:54:59.635Z,11.27
2023-05-14T18:57:29.734Z,11.27
2023-05-14T18:59:56.873Z,11.09
2023-05-14T19:02:24.003Z,11.13
2023-05-14T19:04:52.875Z,11.17
2023-05-14T19:07:21.130Z,11.15
2023-05-14T19:09:48.559Z,11.22
2023-05-14T19:12:15.509Z,11.17
2023-05-14T19:14:42.460Z,11.21
2023-05-14T19:17:09.429Z,11.18
2023-05-14T19:19:36.676Z,11.29
2023-05-14T19:22:03.807Z,11.19
2023-05-14T19:24:30.945Z,11.35
2023-05-14T19:26:57.969Z,11.44
2023-05-14T19:29:25.047Z,11.49
2023-05-14T19:31:52.115Z,11.42
2023-05-14T19:34:19.096Z,11.42
2023-05-14T19:36:46.249Z,11.20
2023-05-14T19:39:13.209Z,11.17
2023-05-14T19:41:43.004Z,11.20
2023-05-14T19:44:09.919Z,11.25
2023-05-14T19:46:37.114Z,11.21
2023-05-14T19:49:03.967Z,11.20
2023-05-14T19:51:31.116Z,11.20
2023-05-14T19:53:57.994Z,11.21
2023-05-14T19:56:27.014Z,11.08
2023-05-14T19:58:54.420Z,11.10
2023-05-14T20:01:21.653Z,11.24
2023-05-14T20:03:48.775Z,11.14
2023-05-14T20:06:17.529Z,11.29
2023-05-14T20:08:47.610Z,11.03
2023-05-14T20:11:15.701Z,11.13
2023-05-14T20:13:42.587Z,11.10
2023-05-14T20:16:09.622Z,11.02
2023-05-14T20:18:36.614Z,11.02
2023-05-14T20:21:03.896Z,11.13
2023-05-14T20:23:30.997Z,11.11
2023-05-14T20:25:58.135Z,11.01
2023-05-14T20:28:25.333Z,10.95
2023-05-14T20:30:52.508Z,10.89
2023-05-14T20:33:19.427Z,11.03
2023-05-14T20:35:46.424Z,11.11
2023-05-14T20:38:13.503Z,11.30
2023-05-14T20:40:40.461Z,11.29
2023-05-14T20:43:07.542Z,11.22
2023-05-14T20:45:34.418Z,11.32
2023-05-14T20:48:01.528Z,11.29
2023-05-14T20:50:28.546Z,11.24
2023-05-14T20:52:55.657Z,11.12
2023-05-14T20:55:23.197Z,10.98
2023-05-14T20:57:50.642Z,11.07
2023-05-14T21:00:18.168Z,11.10
2023-05-14T21:02:45.294Z,11.08
2023-05-14T21:05:13.938Z,11.15
2023-05-14T21:07:41.002Z,11.21
2023-05-14T21:10:11.115Z,11.28
2023-05-14T21:12:38.326Z,11.39
2023-05-14T21:15:05.732Z,11.49
2023-05-14T21:17:34.916Z,11.46
2023-05-14T21:20:02.196Z,11.36
2023-05-14T21:22:31.102Z,11.26
2023-05-14T21:24:58.073Z,11.31
2023-05-14T21:27:25.259Z,11.28
2023-05-14T21:29:52.372Z,11.35
2023-05-14T21:32:20.352Z,11.25
2023-05-14T21:34:47.493Z,11.50
2023-05-14T21:37:15.428Z,11.45
2023-05-14T21:39:42.548Z,11.23
2023-05-14T21:42:09.723Z,11.14
2023-05-14T21:44:37.256Z,11.26
2023-05-14T21:47:04.830Z,11.25
2023-05-14T21:49:31.839Z,11.35
2023-05-14T21:51:58.770Z,11.33
2023-05-14T21:54:25.714Z,11.09
2023-05-14T21:56:52.702Z,11.18
2023-05-14T21:59:19.912Z,10.99
2023-05-14T22:02:05.571Z,11.12
2023-05-14T22:04:34.101Z,11.09
2023-05-14T22:07:01.560Z,11.11
2023-05-14T22:09:29.075Z,11.09
2023-05-14T22:11:57.298Z,11.08
2023-05-14T22:14:26.507Z,11.09
2023-05-14T22:16:53.589Z,11.20
2023-05-14T22:19:20.576Z,11.11
2023-05-14T22:21:47.513Z,11.03
2023-05-14T22:24:14.376Z,10.86
2023-05-14T22:26:41.395Z,10.92
2023-05-14T22:29:08.288Z,11.09
2023-05-14T22:31:35.402Z,11.01
2023-05-14T22:34:02.398Z,10.86
2023-05-14T22:36:29.589Z,11.04
2023-05-14T22:38:56.531Z,11.06
2023-05-14T22:41:23.492Z,10.90
2023-05-14T22:43:50.848Z,11.08
2023-05-14T22:46:17.997Z,11.00
2023-05-14T22:48:45.227Z,10.96
2023-05-14T22:51:12.065Z,11.13
2023-05-14T22:53:39.088Z,10.98
2023-05-14T22:56:06.290Z,11.13
2023-05-14T22:58:33.305Z,10.93
2023-05-14T23:01:00.484Z,11.05
2023-05-14T23:03:27.740Z,10.89
2023-05-14T23:05:54.664Z,10.99
2023-05-14T23:08:21.637Z,11.15
2023-05-14T23:10:48.545Z,11.15
2023-05-14T23:13:15.516Z,11.30
2023-05-14T23:15:43.039Z,11.32
2023-05-14T23:18:10.366Z,11.28
2023-05-14T23:20:37.381Z,11.07
2023-05-14T23:23:05.172Z,11.04
2023-05-14T23:25:32.546Z,11.08
2023-05-14T23:27:59.854Z,11.02
2023-05-14T23:30:26.748Z,11.01
2023-05-14T23:32:53.605Z,11.08
2023-05-14T23:35:20.655Z,11.01
2023-05-14T23:37:49.477Z,10.90
2023-05-14T23:40:17.877Z,11.16
2023-05-14T23:42:44.905Z,11.00
2023-05-14T23:45:12.653Z,11.01
2023-05-14T23:47:40.520Z,11.14
2023-05-14T23:50:07.856Z,11.02
2023-05-14T23:52:34.781Z,10.85
2023-05-14T23:55:01.976Z,10.91
2023-05-14T23:57:31.560Z,10.96
2023-05-14T23:59:59.033Z,11.14
